PST: 08:10 MST: 09:10 CST: 10:10 EST: 11:10 LDN: 16:10 UTC: 16:10
User Agent: CCBot/2.0 (http://commoncrawl.org/faq/)
IP Address: 54.225.36.143
Hostname: ec2-54-225-36-143.compute-1.amazonaws.com

METAR:
KBFI 221553Z AUTO 00000KT 10SM FEW032 OVC042 13/13 A2996 RMK AO2 RAB22E35 SLP146 P0000 T01330128 TSNO
KBFI 221453Z 00000KT 10SM FEW013 OVC038 13/13 A2997 RMK AO2 RAB22E31 SLP147 P0000 60000 T01280128 51008
KBFI 221353Z 12003KT 10SM SCT013 OVC022 13/13 A2996 RMK AO2 SLP145 T01330128 $
KBFI 221253Z 00000KT 10SM OVC037 13/13 A2996 RMK AO2 SLP144 T01280128 $

TAF:
KBFI 221359Z 2214/2312 16006KT P6SM SCT020 BKN040 OVC050 TEMPO 2214/2218 5SM -SHRA BR BKN020 OVC035
FM 222100 16009KT P6SM -SHRA SCT030 OVC045
FM 230500 17010KT 6SM -SHRA BR BKN020 OVC035

KBFI 221124Z 2212/2312 16006KT 6SM -SHRA BR SCT022 BKN030 OVC040
FM 222100 16009KT P6SM -SHRA SCT030 OVC045
FM 230500 17010KT 6SM -SHRA BR BKN020 OVC035

KBFI 220908Z 2209/2306 15004KT P6SM VCSH FEW012 BKN045 OVC050 TEMPO 2209/2212 -SHRA SCT012 OVC030
FM 221200 15007KT P6SM VCSH SCT012 OVC030
FM 222100 18010G18KT P6SM -SHRA SCT030 OVC045
FM 230500 17009KT P6SM -SHRA BKN025 OVC040

KBFI 220525Z 2206/2306 15006KT 3SM RA BR BKN009 OVC018
FM 220800 16006KT P6SM -SHRA OVC022
FM 221100 15007KT P6SM VCSH OVC022
FM 222100 18010G18KT P6SM -SHRA SCT030 OVC045
FM 230500 17009KT P6SM -SHRA BKN025 OVC040

KBFI 220438Z 2205/2224 16008KT 6SM -SHRA BR FEW020 SCT035 OVC045 TEMPO 2205/2207 4SM RA BR OVC022
FM 220700 16008KT P6SM -SHRA BKN022 OVC035
FM 221100 15007KT P6SM VCSH OVC022
FM 222100 16007KT P6SM -RA SCT030 OVC045

KBFI 220241Z 2203/2224 16003KT P6SM -SHRA OVC060
FM 221100 15007KT P6SM VCSH OVC030
FM 222100 16007KT P6SM -RA SCT030 OVC045

KBFI 212334Z 2200/2224 VRB05KT 4SM -RA BR OVC040 WS020/19035KT TEMPO 2200/2202 2SM -RA BR BKN008 OVC030
FM 220200 16006KT 5SM -SHRA OVC045
FM 221100 15007KT P6SM VCSH OVC030
FM 222100 16007KT P6SM -RA SCT030 OVC045

KBFI 212254Z 2123/2218 00000KT 5SM -RA BR FEW004 SCT017 OVC035
FM 220100 16010G18KT P6SM -SHRA BKN030 OVC050
FM 220600 16007KT P6SM VCSH OVC020

KBFI 212030Z 2121/2218 00000KT 2SM -RA BR BKN006 BKN040 OVC060 WS020/19035KT
FM 212300 14007KT 5SM -SHRA BKN030 OVC050
FM 220100 16010G18KT P6SM -SHRA BKN030 OVC050
FM 220600 16007KT P6SM VCSH OVC020

KBFI 211735Z 2118/2218 34003KT 4SM -RA BR FEW008 BKN027 OVC035 WS020/19035KT
FM 212300 14007KT 5SM -SHRA BKN030 OVC050
FM 220100 16010G18KT P6SM -SHRA BKN030 OVC050
FM 220600 16007KT P6SM VCSH OVC020